Terminal Aerodrome Forecast
Issued by NWS

Home | Current Version | Previous Version | Text Only | Print | Product List | Glossary On
Versions: 1 2 3 4 5 6 7 8 9 10 11 12 13 14 15 16 17 18 19 20 21 22 23 24 25 26 27
182
FTUS45 KVEF 310537
TAFHND
TAF
KHND 310537Z 3106/0106 20010KT P6SM SCT120
     FM310745 35012G20KT P6SM SCT120 BKN220
     FM311300 VRB05KT P6SM FEW120 SCT250
     FM312000 21012G20KT P6SM SCT120 BKN250=

USA.gov is the U.S. government's official web portal to all federal, state and local government web resources and services.